sensor_id;sensor_type;location;lat;lon;timestamp;temperature;humidity
75190;HTU21D;69198;44.694;37.790;2023-07-29T00:00:02;21.05;68.87
75190;HTU21D;69198;44.694;37.790;2023-07-29T00:01:13;21.05;68.77
75190;HTU21D;69198;44.694;37.790;2023-07-29T00:02:14;21.06;68.78
75190;HTU21D;69198;44.694;37.790;2023-07-29T00:03:15;21.06;68.85
75190;HTU21D;69198;44.694;37.790;2023-07-29T00:04:16;21.09;68.80
75190;HTU21D;69198;44.694;37.790;2023-07-29T00:05:17;21.09;68.77
75190;HTU21D;69198;44.694;37.790;2023-07-29T00:06:18;21.08;68.69
75190;HTU21D;69198;44.694;37.790;2023-07-29T00:07:19;21.06;68.65
75190;HTU21D;69198;44.694;37.790;2023-07-29T00:08:20;21.05;68.61
75190;HTU21D;69198;44.694;37.790;2023-07-29T00:09:21;21.04;68.54
75190;HTU21D;69198;44.694;37.790;2023-07-29T00:10:22;21.05;68.49
75190;HTU21D;69198;44.694;37.790;2023-07-29T00:11:23;21.06;68.45
75190;HTU21D;69198;44.694;37.790;2023-07-29T00:12:24;21.06;68.49
75190;HTU21D;69198;44.694;37.790;2023-07-29T00:13:25;21.06;68.55
75190;HTU21D;69198;44.694;37.790;2023-07-29T00:14:26;21.08;68.58
75190;HTU21D;69198;44.694;37.790;2023-07-29T00:15:27;21.09;68.56
75190;HTU21D;69198;44.694;37.790;2023-07-29T00:16:28;21.13;68.60
75190;HTU21D;69198;44.694;37.790;2023-07-29T00:17:29;21.14;68.68
75190;HTU21D;69198;44.694;37.790;2023-07-29T00:18:30;21.14;68.71
75190;HTU21D;69198;44.694;37.790;2023-07-29T00:19:32;21.15;68.83
75190;HTU21D;69198;44.694;37.790;2023-07-29T00:20:34;21.18;68.95
75190;HTU21D;69198;44.694;37.790;2023-07-29T00:21:35;21.21;68.99
75190;HTU21D;69198;44.694;37.790;2023-07-29T00:22:36;21.25;69.04
75190;HTU21D;69198;44.694;37.790;2023-07-29T00:23:37;21.23;69.04
75190;HTU21D;69198;44.694;37.790;2023-07-29T00:24:39;21.28;69.01
75190;HTU21D;69198;44.694;37.790;2023-07-29T00:25:41;21.29;68.97
75190;HTU21D;69198;44.694;37.790;2023-07-29T00:26:42;21.28;68.97
75190;HTU21D;69198;44.694;37.790;2023-07-29T00:27:43;21.27;69.04
75190;HTU21D;69198;44.694;37.790;2023-07-29T00:28:43;21.23;69.14
75190;HTU21D;69198;44.694;37.790;2023-07-29T00:29:45;21.22;69.19
75190;HTU21D;69198;44.694;37.790;2023-07-29T00:30:45;21.23;69.20
75190;HTU21D;69198;44.694;37.790;2023-07-29T00:31:46;21.25;69.26
75190;HTU21D;69198;44.694;37.790;2023-07-29T00:32:48;21.29;69.29
75190;HTU21D;69198;44.694;37.790;2023-07-29T00:33:49;21.28;69.33
75190;HTU21D;69198;44.694;37.790;2023-07-29T00:34:50;21.29;69.36
75190;HTU21D;69198;44.694;37.790;2023-07-29T00:35:51;21.30;69.39
75190;HTU21D;69198;44.694;37.790;2023-07-29T00:36:52;21.33;69.36
75190;HTU21D;69198;44.694;37.790;2023-07-29T00:37:53;21.34;69.32
75190;HTU21D;69198;44.694;37.790;2023-07-29T00:38:54;21.33;69.37
75190;HTU21D;69198;44.694;37.790;2023-07-29T00:39:57;21.33;69.42
75190;HTU21D;69198;44.694;37.790;2023-07-29T00:41:02;21.34;69.49
75190;HTU21D;69198;44.694;37.790;2023-07-29T00:42:04;21.34;69.52
75190;HTU21D;69198;44.694;37.790;2023-07-29T00:43:05;21.32;69.55
75190;HTU21D;69198;44.694;37.790;2023-07-29T00:44:06;21.33;69.49
75190;HTU21D;69198;44.694;37.790;2023-07-29T00:45:08;21.35;69.58
75190;HTU21D;69198;44.694;37.790;2023-07-29T00:46:10;21.36;69.58
75190;HTU21D;69198;44.694;37.790;2023-07-29T00:47:14;21.37;69.58
75190;HTU21D;69198;44.694;37.790;2023-07-29T00:48:16;21.39;69.50
75190;HTU21D;69198;44.694;37.790;2023-07-29T00:49:17;21.43;69.52
75190;HTU21D;69198;44.694;37.790;2023-07-29T00:50:18;21.45;69.50
75190;HTU21D;69198;44.694;37.790;2023-07-29T00:51:19;21.47;69.52
75190;HTU21D;69198;44.694;37.790;2023-07-29T00:52:21;21.47;69.39
75190;HTU21D;69198;44.694;37.790;2023-07-29T00:53:21;21.47;69.26
75190;HTU21D;69198;44.694;37.790;2023-07-29T00:54:24;21.48;69.26
75190;HTU21D;69198;44.694;37.790;2023-07-29T00:55:26;21.49;69.23
75190;HTU21D;69198;44.694;37.790;2023-07-29T00:56:27;21.51;69.10
75190;HTU21D;69198;44.694;37.790;2023-07-29T00:57:29;21.53;69.00
75190;HTU21D;69198;44.694;37.790;2023-07-29T00:58:31;21.57;68.88
75190;HTU21D;69198;44.694;37.790;2023-07-29T00:59:32;21.57;68.86
75190;HTU21D;69198;44.694;37.790;2023-07-29T01:00:34;21.58;68.83
75190;HTU21D;69198;44.694;37.790;2023-07-29T01:01:38;21.59;68.81
75190;HTU21D;69198;44.694;37.790;2023-07-29T01:02:39;21.59;68.81
75190;HTU21D;69198;44.694;37.790;2023-07-29T01:03:41;21.59;68.87
75190;HTU21D;69198;44.694;37.790;2023-07-29T01:04:42;21.57;68.91
75190;HTU21D;69198;44.694;37.790;2023-07-29T01:05:54;21.59;68.97
75190;HTU21D;69198;44.694;37.790;2023-07-29T01:08:21;21.59;68.78
75190;HTU21D;69198;44.694;37.790;2023-07-29T01:11:20;21.57;68.68
75190;HTU21D;69198;44.694;37.790;2023-07-29T01:13:43;21.50;68.72
75190;HTU21D;69198;44.694;37.790;2023-07-29T01:14:54;21.54;68.44
75190;HTU21D;69198;44.694;37.790;2023-07-29T01:16:01;21.55;68.28
75190;HTU21D;69198;44.694;37.790;2023-07-29T01:17:09;21.53;68.19
75190;HTU21D;69198;44.694;37.790;2023-07-29T01:18:30;21.55;68.09
75190;HTU21D;69198;44.694;37.790;2023-07-29T01:20:05;21.55;68.36
75190;HTU21D;69198;44.694;37.790;2023-07-29T01:21:08;21.50;68.55
75190;HTU21D;69198;44.694;37.790;2023-07-29T01:22:11;21.48;68.74
75190;HTU21D;69198;44.694;37.790;2023-07-29T01:23:12;21.47;68.92
75190;HTU21D;69198;44.694;37.790;2023-07-29T01:24:13;21.45;68.94
75190;HTU21D;69198;44.694;37.790;2023-07-29T01:25:15;21.45;68.91
75190;HTU21D;69198;44.694;37.790;2023-07-29T01:26:16;21.42;68.91
75190;HTU21D;69198;44.694;37.790;2023-07-29T01:27:17;21.42;68.99
75190;HTU21D;69198;44.694;37.790;2023-07-29T01:28:18;21.39;69.11
75190;HTU21D;69198;44.694;37.790;2023-07-29T01:29:19;21.39;69.22
75190;HTU21D;69198;44.694;37.790;2023-07-29T01:30:22;21.39;69.29
75190;HTU21D;69198;44.694;37.790;2023-07-29T01:31:43;21.39;69.29
75190;HTU21D;69198;44.694;37.790;2023-07-29T01:33:08;21.37;69.28
75190;HTU21D;69198;44.694;37.790;2023-07-29T01:34:32;21.34;69.36
75190;HTU21D;69198;44.694;37.790;2023-07-29T01:35:44;21.31;69.58
75190;HTU21D;69198;44.694;37.790;2023-07-29T01:36:48;21.28;69.69
75190;HTU21D;69198;44.694;37.790;2023-07-29T01:37:59;21.27;69.74
75190;HTU21D;69198;44.694;37.790;2023-07-29T01:39:04;21.23;69.79
75190;HTU21D;69198;44.694;37.790;2023-07-29T01:40:06;21.23;69.79
75190;HTU21D;69198;44.694;37.790;2023-07-29T01:41:09;21.21;69.90
75190;HTU21D;69198;44.694;37.790;2023-07-29T01:42:11;21.21;69.97
75190;HTU21D;69198;44.694;37.790;2023-07-29T01:43:12;21.21;70.02
75190;HTU21D;69198;44.694;37.790;2023-07-29T01:44:14;21.16;70.09
75190;HTU21D;69198;44.694;37.790;2023-07-29T01:45:15;21.17;70.12
75190;HTU21D;69198;44.694;37.790;2023-07-29T01:46:17;21.14;70.09
75190;HTU21D;69198;44.694;37.790;2023-07-29T01:47:18;21.14;70.01
75190;HTU21D;69198;44.694;37.790;2023-07-29T01:48:19;21.13;69.96
75190;HTU21D;69198;44.694;37.790;2023-07-29T01:49:22;21.14;69.90
75190;HTU21D;69198;44.694;37.790;2023-07-29T01:50:23;21.13;69.87
75190;HTU21D;69198;44.694;37.790;2023-07-29T01:51:25;21.14;69.87
75190;HTU21D;69198;44.694;37.790;2023-07-29T01:52:26;21.14;69.87
75190;HTU21D;69198;44.694;37.790;2023-07-29T01:53:27;21.15;69.86
75190;HTU21D;69198;44.694;37.790;2023-07-29T01:54:28;21.17;69.74
75190;HTU21D;69198;44.694;37.790;2023-07-29T01:55:29;21.20;69.63
75190;HTU21D;69198;44.694;37.790;2023-07-29T01:56:30;21.22;69.53
75190;HTU21D;69198;44.694;37.790;2023-07-29T01:57:32;21.23;69.43
75190;HTU21D;69198;44.694;37.790;2023-07-29T01:58:33;21.28;69.40
75190;HTU21D;69198;44.694;37.790;2023-07-29T01:59:34;21.29;69.36
75190;HTU21D;69198;44.694;37.790;2023-07-29T02:00:35;21.31;69.33
75190;HTU21D;69198;44.694;37.790;2023-07-29T02:01:36;21.34;69.29
75190;HTU21D;69198;44.694;37.790;2023-07-29T02:02:37;21.36;69.29
75190;HTU21D;69198;44.694;37.790;2023-07-29T02:03:38;21.38;69.29
75190;HTU21D;69198;44.694;37.790;2023-07-29T02:04:39;21.38;69.31
75190;HTU21D;69198;44.694;37.790;2023-07-29T02:05:40;21.42;69.32
75190;HTU21D;69198;44.694;37.790;2023-07-29T02:06:44;21.44;69.29
75190;HTU21D;69198;44.694;37.790;2023-07-29T02:07:45;21.45;69.33
75190;HTU21D;69198;44.694;37.790;2023-07-29T02:08:46;21.48;69.30
75190;HTU21D;69198;44.694;37.790;2023-07-29T02:09:47;21.48;69.25
75190;HTU21D;69198;44.694;37.790;2023-07-29T02:10:48;21.50;69.16
75190;HTU21D;69198;44.694;37.790;2023-07-29T02:11:49;21.51;69.14
75190;HTU21D;69198;44.694;37.790;2023-07-29T02:12:50;21.53;69.12
75190;HTU21D;69198;44.694;37.790;2023-07-29T02:13:51;21.53;69.09
75190;HTU21D;69198;44.694;37.790;2023-07-29T02:14:52;21.54;69.09
75190;HTU21D;69198;44.694;37.790;2023-07-29T02:15:53;21.55;69.10
75190;HTU21D;69198;44.694;37.790;2023-07-29T02:16:54;21.58;69.04
75190;HTU21D;69198;44.694;37.790;2023-07-29T02:17:55;21.58;68.98
75190;HTU21D;69198;44.694;37.790;2023-07-29T02:18:56;21.59;68.94
75190;HTU21D;69198;44.694;37.790;2023-07-29T02:19:58;21.62;68.88
75190;HTU21D;69198;44.694;37.790;2023-07-29T02:20:59;21.63;68.82
75190;HTU21D;69198;44.694;37.790;2023-07-29T02:22:00;21.65;68.75
75190;HTU21D;69198;44.694;37.790;2023-07-29T02:23:01;21.67;68.68
75190;HTU21D;69198;44.694;37.790;2023-07-29T02:24:03;21.68;68.60
75190;HTU21D;69198;44.694;37.790;2023-07-29T02:25:04;21.72;68.52
75190;HTU21D;69198;44.694;37.790;2023-07-29T02:26:06;21.75;68.41
75190;HTU21D;69198;44.694;37.790;2023-07-29T02:27:07;21.77;68.35
75190;HTU21D;69198;44.694;37.790;2023-07-29T02:28:08;21.78;68.26
75190;HTU21D;69198;44.694;37.790;2023-07-29T02:29:09;21.81;68.26
75190;HTU21D;69198;44.694;37.790;2023-07-29T02:30:10;21.82;68.23
75190;HTU21D;69198;44.694;37.790;2023-07-29T02:31:23;21.83;68.33
75190;HTU21D;69198;44.694;37.790;2023-07-29T02:32:24;21.83;68.41
75190;HTU21D;69198;44.694;37.790;2023-07-29T02:33:25;21.84;68.47
75190;HTU21D;69198;44.694;37.790;2023-07-29T02:34:27;21.87;68.52
75190;HTU21D;69198;44.694;37.790;2023-07-29T02:35:28;21.88;68.75
75190;HTU21D;69198;44.694;37.790;2023-07-29T02:36:29;21.91;68.89
75190;HTU21D;69198;44.694;37.790;2023-07-29T02:37:31;21.92;68.98
75190;HTU21D;69198;44.694;37.790;2023-07-29T02:38:32;21.92;69.05
75190;HTU21D;69198;44.694;37.790;2023-07-29T02:39:33;21.93;69.00
75190;HTU21D;69198;44.694;37.790;2023-07-29T02:40:34;21.92;68.96
75190;HTU21D;69198;44.694;37.790;2023-07-29T02:41:35;21.92;68.91
75190;HTU21D;69198;44.694;37.790;2023-07-29T02:42:36;21.92;68.82
75190;HTU21D;69198;44.694;37.790;2023-07-29T02:43:37;21.91;68.66
75190;HTU21D;69198;44.694;37.790;2023-07-29T02:44:40;21.92;68.50
75190;HTU21D;69198;44.694;37.790;2023-07-29T02:45:42;21.92;68.32
75190;HTU21D;69198;44.694;37.790;2023-07-29T02:46:43;21.94;68.16
75190;HTU21D;69198;44.694;37.790;2023-07-29T02:47:44;22.09;67.78
75190;HTU21D;69198;44.694;37.790;2023-07-29T02:48:46;22.37;67.02
75190;HTU21D;69198;44.694;37.790;2023-07-29T02:49:47;22.73;66.01
75190;HTU21D;69198;44.694;37.790;2023-07-29T02:50:48;23.11;64.95
75190;HTU21D;69198;44.694;37.790;2023-07-29T02:51:49;23.50;63.89
75190;HTU21D;69198;44.694;37.790;2023-07-29T02:52:50;23.88;62.89
75190;HTU21D;69198;44.694;37.790;2023-07-29T02:53:52;24.25;61.92
75190;HTU21D;69198;44.694;37.790;2023-07-29T02:54:53;24.59;61.08
75190;HTU21D;69198;44.694;37.790;2023-07-29T02:55:54;24.97;60.19
75190;HTU21D;69198;44.694;37.790;2023-07-29T02:56:56;25.32;59.38
75190;HTU21D;69198;44.694;37.790;2023-07-29T02:57:57;25.63;58.64
75190;HTU21D;69198;44.694;37.790;2023-07-29T02:58:59;25.94;57.88
75190;HTU21D;69198;44.694;37.790;2023-07-29T03:00:02;26.23;57.03
75190;HTU21D;69198;44.694;37.790;2023-07-29T03:01:05;26.48;56.28
75190;HTU21D;69198;44.694;37.790;2023-07-29T03:02:06;26.68;55.66
75190;HTU21D;69198;44.694;37.790;2023-07-29T03:03:08;26.92;55.10
75190;HTU21D;69198;44.694;37.790;2023-07-29T03:04:09;27.19;54.43
75190;HTU21D;69198;44.694;37.790;2023-07-29T03:05:14;27.51;53.65
75190;HTU21D;69198;44.694;37.790;2023-07-29T03:06:15;27.79;52.91
75190;HTU21D;69198;44.694;37.790;2023-07-29T03:07:16;28.09;52.29
75190;HTU21D;69198;44.694;37.790;2023-07-29T03:08:17;28.42;51.48
75190;HTU21D;69198;44.694;37.790;2023-07-29T03:09:18;28.68;50.76
75190;HTU21D;69198;44.694;37.790;2023-07-29T03:10:19;28.92;50.28
75190;HTU21D;69198;44.694;37.790;2023-07-29T03:11:21;29.18;49.69
75190;HTU21D;69198;44.694;37.790;2023-07-29T03:12:22;29.52;48.99
75190;HTU21D;69198;44.694;37.790;2023-07-29T03:13:23;29.82;48.32
75190;HTU21D;69198;44.694;37.790;2023-07-29T03:14:24;30.16;47.66
75190;HTU21D;69198;44.694;37.790;2023-07-29T03:15:26;30.46;46.80
75190;HTU21D;69198;44.694;37.790;2023-07-29T03:16:27;30.68;46.20
75190;HTU21D;69198;44.694;37.790;2023-07-29T03:17:30;30.95;45.57
75190;HTU21D;69198;44.694;37.790;2023-07-29T03:18:31;31.23;44.99
75190;HTU21D;69198;44.694;37.790;2023-07-29T03:19:32;31.46;44.31
75190;HTU21D;69198;44.694;37.790;2023-07-29T03:20:34;31.58;43.93
75190;HTU21D;69198;44.694;37.790;2023-07-29T03:21:35;31.73;43.57
75190;HTU21D;69198;44.694;37.790;2023-07-29T03:22:36;31.89;43.20
75190;HTU21D;69198;44.694;37.790;2023-07-29T03:23:38;32.16;42.85
75190;HTU21D;69198;44.694;37.790;2023-07-29T03:24:39;32.53;42.22
75190;HTU21D;69198;44.694;37.790;2023-07-29T03:25:40;32.76;41.55
75190;HTU21D;69198;44.694;37.790;2023-07-29T03:26:41;32.90;41.10
75190;HTU21D;69198;44.694;37.790;2023-07-29T03:27:42;32.94;40.77
75190;HTU21D;69198;44.694;37.790;2023-07-29T03:28:43;32.90;40.52
75190;HTU21D;69198;44.694;37.790;2023-07-29T03:29:45;32.90;40.31
75190;HTU21D;69198;44.694;37.790;2023-07-29T03:30:46;32.97;40.05
75190;HTU21D;69198;44.694;37.790;2023-07-29T03:31:47;33.06;39.88
75190;HTU21D;69198;44.694;37.790;2023-07-29T03:32:49;33.19;39.62
75190;HTU21D;69198;44.694;37.790;2023-07-29T03:33:50;33.30;39.36
75190;HTU21D;69198;44.694;37.790;2023-07-29T03:34:51;33.33;39.10
75190;HTU21D;69198;44.694;37.790;2023-07-29T03:35:52;33.40;38.93
75190;HTU21D;69198;44.694;37.790;2023-07-29T03:36:53;33.52;38.79
75190;HTU21D;69198;44.694;37.790;2023-07-29T03:37:54;33.72;38.66
75190;HTU21D;69198;44.694;37.790;2023-07-29T03:38:55;33.83;38.37
75190;HTU21D;69198;44.694;37.790;2023-07-29T03:39:59;33.95;37.97
75190;HTU21D;69198;44.694;37.790;2023-07-29T03:41:00;33.95;37.75
75190;HTU21D;69198;44.694;37.790;2023-07-29T03:42:04;33.93;37.76
75190;HTU21D;69198;44.694;37.790;2023-07-29T03:43:06;33.91;37.98
75190;HTU21D;69198;44.694;37.790;2023-07-29T03:44:07;33.97;37.90
75190;HTU21D;69198;44.694;37.790;2023-07-29T03:45:09;34.08;37.67
75190;HTU21D;69198;44.694;37.790;2023-07-29T03:46:10;34.27;37.37
75190;HTU21D;69198;44.694;37.790;2023-07-29T03:47:11;34.40;37.19
75190;HTU21D;69198;44.694;37.790;2023-07-29T03:48:17;34.42;36.95
75190;HTU21D;69198;44.694;37.790;2023-07-29T03:49:18;34.36;36.99
75190;HTU21D;69198;44.694;37.790;2023-07-29T03:50:19;34.37;37.03
75190;HTU21D;69198;44.694;37.790;2023-07-29T03:51:20;34.42;36.85
75190;HTU21D;69198;44.694;37.790;2023-07-29T03:52:22;34.48;36.80
75190;HTU21D;69198;44.694;37.790;2023-07-29T03:53:23;34.48;36.73
75190;HTU21D;69198;44.694;37.790;2023-07-29T03:54:24;34.42;36.83
75190;HTU21D;69198;44.694;37.790;2023-07-29T03:55:25;34.47;36.73
75190;HTU21D;69198;44.694;37.790;2023-07-29T03:56:26;34.46;36.66
75190;HTU21D;69198;44.694;37.790;2023-07-29T03:57:27;34.42;36.52
75190;HTU21D;69198;44.694;37.790;2023-07-29T03:58:29;34.48;36.56
75190;HTU21D;69198;44.694;37.790;2023-07-29T03:59:30;34.57;36.24
75190;HTU21D;69198;44.694;37.790;2023-07-29T04:00:31;34.62;36.14
75190;HTU21D;69198;44.694;37.790;2023-07-29T04:01:33;34.62;36.24
75190;HTU21D;69198;44.694;37.790;2023-07-29T04:02:34;34.59;36.14
75190;HTU21D;69198;44.694;37.790;2023-07-29T04:03:38;34.55;36.21
75190;HTU21D;69198;44.694;37.790;2023-07-29T04:04:39;34.62;36.05
75190;HTU21D;69198;44.694;37.790;2023-07-29T04:05:42;34.77;35.99
75190;HTU21D;69198;44.694;37.790;2023-07-29T04:06:43;34.92;35.79
75190;HTU21D;69198;44.694;37.790;2023-07-29T04:07:45;35.12;35.69
75190;HTU21D;69198;44.694;37.790;2023-07-29T04:08:46;35.22;35.50
75190;HTU21D;69198;44.694;37.790;2023-07-29T04:09:47;35.36;35.28
75190;HTU21D;69198;44.694;37.790;2023-07-29T04:10:48;35.35;34.99
75190;HTU21D;69198;44.694;37.790;2023-07-29T04:11:50;35.35;35.00
75190;HTU21D;69198;44.694;37.790;2023-07-29T04:12:52;35.40;35.02
75190;HTU21D;69198;44.694;37.790;2023-07-29T04:13:53;35.47;35.11
75190;HTU21D;69198;44.694;37.790;2023-07-29T04:14:54;35.41;35.19
75190;HTU21D;69198;44.694;37.790;2023-07-29T04:15:55;35.39;35.26
75190;HTU21D;69198;44.694;37.790;2023-07-29T04:16:56;35.50;35.23
75190;HTU21D;69198;44.694;37.790;2023-07-29T04:17:57;35.69;34.94
75190;HTU21D;69198;44.694;37.790;2023-07-29T04:18:58;35.86;34.81
75190;HTU21D;69198;44.694;37.790;2023-07-29T04:19:59;36.10;34.19
75190;HTU21D;69198;44.694;37.790;2023-07-29T04:21:06;36.26;33.74
75190;HTU21D;69198;44.694;37.790;2023-07-29T04:22:07;36.39;33.50
75190;HTU21D;69198;44.694;37.790;2023-07-29T04:23:11;36.55;33.55
75190;HTU21D;69198;44.694;37.790;2023-07-29T04:24:12;36.62;33.53
75190;HTU21D;69198;44.694;37.790;2023-07-29T04:25:13;36.62;33.32
75190;HTU21D;69198;44.694;37.790;2023-07-29T04:26:14;36.57;33.37
75190;HTU21D;69198;44.694;37.790;2023-07-29T04:27:15;36.66;33.33
75190;HTU21D;69198;44.694;37.790;2023-07-29T04:28:17;36.76;32.77
75190;HTU21D;69198;44.694;37.790;2023-07-29T04:29:18;36.80;32.60
75190;HTU21D;69198;44.694;37.790;2023-07-29T04:30:19;36.73;32.86
75190;HTU21D;69198;44.694;37.790;2023-07-29T04:31:20;36.82;32.83
75190;HTU21D;69198;44.694;37.790;2023-07-29T04:32:24;36.96;32.52
75190;HTU21D;69198;44.694;37.790;2023-07-29T04:33:25;37.05;32.29
75190;HTU21D;69198;44.694;37.790;2023-07-29T04:34:26;37.07;32.32
75190;HTU21D;69198;44.694;37.790;2023-07-29T04:35:27;37.00;31.84
75190;HTU21D;69198;44.694;37.790;2023-07-29T04:36:28;36.98;31.77
75190;HTU21D;69198;44.694;37.790;2023-07-29T04:37:29;37.01;31.80
75190;HTU21D;69198;44.694;37.790;2023-07-29T04:38:31;37.17;31.54
75190;HTU21D;69198;44.694;37.790;2023-07-29T04:39:35;37.41;31.26
75190;HTU21D;69198;44.694;37.790;2023-07-29T04:40:37;37.50;30.99
75190;HTU21D;69198;44.694;37.790;2023-07-29T04:41:38;37.55;30.95
75190;HTU21D;69198;44.694;37.790;2023-07-29T04:42:39;37.55;30.89
75190;HTU21D;69198;44.694;37.790;2023-07-29T04:43:40;37.41;30.88
75190;HTU21D;69198;44.694;37.790;2023-07-29T04:44:42;37.40;30.86
75190;HTU21D;69198;44.694;37.790;2023-07-29T04:45:44;37.40;30.91
75190;HTU21D;69198;44.694;37.790;2023-07-29T04:46:45;37.28;30.99
75190;HTU21D;69198;44.694;37.790;2023-07-29T04:47:46;37.28;31.06
75190;HTU21D;69198;44.694;37.790;2023-07-29T04:48:47;37.40;31.04
75190;HTU21D;69198;44.694;37.790;2023-07-29T04:49:48;37.50;30.68
75190;HTU21D;69198;44.694;37.790;2023-07-29T04:50:49;37.50;30.63
75190;HTU21D;69198;44.694;37.790;2023-07-29T04:51:50;37.47;30.64
75190;HTU21D;69198;44.694;37.790;2023-07-29T04:52:51;37.61;30.56
75190;HTU21D;69198;44.694;37.790;2023-07-29T04:53:54;37.79;30.36
75190;HTU21D;69198;44.694;37.790;2023-07-29T04:54:55;37.95;30.27
75190;HTU21D;69198;44.694;37.790;2023-07-29T04:55:56;38.16;29.87
75190;HTU21D;69198;44.694;37.790;2023-07-29T04:56:57;38.39;29.64
75190;HTU21D;69198;44.694;37.790;2023-07-29T04:57:58;38.56;29.48
75190;HTU21D;69198;44.694;37.790;2023-07-29T04:59:00;38.67;29.29
75190;HTU21D;69198;44.694;37.790;2023-07-29T05:00:02;38.76;29.32
75190;HTU21D;69198;44.694;37.790;2023-07-29T05:01:04;38.84;29.25
75190;HTU21D;69198;44.694;37.790;2023-07-29T05:02:05;38.95;29.03
75190;HTU21D;69198;44.694;37.790;2023-07-29T05:03:06;38.84;28.97
75190;HTU21D;69198;44.694;37.790;2023-07-29T05:04:07;38.89;28.90
75190;HTU21D;69198;44.694;37.790;2023-07-29T05:05:08;38.93;28.64
75190;HTU21D;69198;44.694;37.790;2023-07-29T05:06:09;38.96;28.58
75190;HTU21D;69198;44.694;37.790;2023-07-29T05:07:10;38.89;28.67
75190;HTU21D;69198;44.694;37.790;2023-07-29T05:08:11;38.66;28.85
75190;HTU21D;69198;44.694;37.790;2023-07-29T05:09:17;38.65;28.80
75190;HTU21D;69198;44.694;37.790;2023-07-29T05:10:18;38.74;28.99
75190;HTU21D;69198;44.694;37.790;2023-07-29T05:11:20;38.76;29.00
75190;HTU21D;69198;44.694;37.790;2023-07-29T05:12:22;38.71;28.97
75190;HTU21D;69198;44.694;37.790;2023-07-29T05:13:23;38.68;29.09
75190;HTU21D;69198;44.694;37.790;2023-07-29T05:14:25;38.48;29.21
75190;HTU21D;69198;44.694;37.790;2023-07-29T05:15:26;38.34;29.35
75190;HTU21D;69198;44.694;37.790;2023-07-29T05:16:27;38.34;29.44
75190;HTU21D;69198;44.694;37.790;2023-07-29T05:17:27;38.37;29.31
75190;HTU21D;69198;44.694;37.790;2023-07-29T05:18:29;38.52;29.26
75190;HTU21D;69198;44.694;37.790;2023-07-29T05:19:29;38.53;29.26
75190;HTU21D;69198;44.694;37.790;2023-07-29T05:20:31;38.54;29.02
75190;HTU21D;69198;44.694;37.790;2023-07-29T05:21:32;38.45;29.09
75190;HTU21D;69198;44.694;37.790;2023-07-29T05:22:33;38.35;29.11
75190;HTU21D;69198;44.694;37.790;2023-07-29T05:23:34;38.52;28.89
75190;HTU21D;69198;44.694;37.790;2023-07-29T05:24:36;38.70;28.60
75190;HTU21D;69198;44.694;37.790;2023-07-29T05:25:37;38.83;28.47
75190;HTU21D;69198;44.694;37.790;2023-07-29T05:26:38;38.75;28.45
75190;HTU21D;69198;44.694;37.790;2023-07-29T05:27:39;38.73;28.52
75190;HTU21D;69198;44.694;37.790;2023-07-29T05:28:40;38.83;28.21
75190;HTU21D;69198;44.694;37.790;2023-07-29T05:29:41;38.80;28.00
75190;HTU21D;69198;44.694;37.790;2023-07-29T05:30:44;38.85;27.81
75190;HTU21D;69198;44.694;37.790;2023-07-29T05:31:45;39.02;27.65
75190;HTU21D;69198;44.694;37.790;2023-07-29T05:32:46;39.18;27.49
75190;HTU21D;69198;44.694;37.790;2023-07-29T05:33:47;39.17;27.23
75190;HTU21D;69198;44.694;37.790;2023-07-29T05:34:51;38.98;27.43
75190;HTU21D;69198;44.694;37.790;2023-07-29T05:35:53;38.73;27.94
75190;HTU21D;69198;44.694;37.790;2023-07-29T05:36:54;38.53;28.42
75190;HTU21D;69198;44.694;37.790;2023-07-29T05:37:55;38.55;28.47
75190;HTU21D;69198;44.694;37.790;2023-07-29T05:38:56;38.84;28.06
75190;HTU21D;69198;44.694;37.790;2023-07-29T05:39:57;38.97;27.74
75190;HTU21D;69198;44.694;37.790;2023-07-29T05:40:58;38.67;27.74
75190;HTU21D;69198;44.694;37.790;2023-07-29T05:41:59;38.04;28.38
75190;HTU21D;69198;44.694;37.790;2023-07-29T05:43:03;37.66;29.09
75190;HTU21D;69198;44.694;37.790;2023-07-29T05:44:04;37.23;29.48
75190;HTU21D;69198;44.694;37.790;2023-07-29T05:45:06;36.60;30.25
75190;HTU21D;69198;44.694;37.790;2023-07-29T05:46:07;35.99;31.12
75190;HTU21D;69198;44.694;37.790;2023-07-29T05:47:08;35.41;31.79
75190;HTU21D;69198;44.694;37.790;2023-07-29T05:48:09;34.73;31.97
75190;HTU21D;69198;44.694;37.790;2023-07-29T05:49:10;34.04;32.26
75190;HTU21D;69198;44.694;37.790;2023-07-29T05:50:11;33.90;32.79
75190;HTU21D;69198;44.694;37.790;2023-07-29T05:51:14;34.18;32.63
75190;HTU21D;69198;44.694;37.790;2023-07-29T05:52:16;34.64;31.45
75190;HTU21D;69198;44.694;37.790;2023-07-29T05:53:17;35.11;30.16
75190;HTU21D;69198;44.694;37.790;2023-07-29T05:54:18;35.42;29.66
75190;HTU21D;69198;44.694;37.790;2023-07-29T05:55:19;35.82;28.93
75190;HTU21D;69198;44.694;37.790;2023-07-29T05:56:20;36.04;28.41
75190;HTU21D;69198;44.694;37.790;2023-07-29T05:57:22;36.09;28.23
75190;HTU21D;69198;44.694;37.790;2023-07-29T05:58:23;36.12;28.11
75190;HTU21D;69198;44.694;37.790;2023-07-29T05:59:24;36.26;27.90
75190;HTU21D;69198;44.694;37.790;2023-07-29T06:00:25;36.48;27.44
75190;HTU21D;69198;44.694;37.790;2023-07-29T06:01:26;36.69;27.17
75190;HTU21D;69198;44.694;37.790;2023-07-29T06:02:27;36.93;26.82
75190;HTU21D;69198;44.694;37.790;2023-07-29T06:03:28;36.81;26.94
75190;HTU21D;69198;44.694;37.790;2023-07-29T06:04:29;36.74;26.94
75190;HTU21D;69198;44.694;37.790;2023-07-29T06:05:30;36.46;27.12
75190;HTU21D;69198;44.694;37.790;2023-07-29T06:06:31;36.33;27.42
75190;HTU21D;69198;44.694;37.790;2023-07-29T06:07:32;36.33;27.29
75190;HTU21D;69198;44.694;37.790;2023-07-29T06:08:34;36.39;27.20
75190;HTU21D;69198;44.694;37.790;2023-07-29T06:09:35;36.60;26.92
75190;HTU21D;69198;44.694;37.790;2023-07-29T06:10:37;36.84;26.59
75190;HTU21D;69198;44.694;37.790;2023-07-29T06:11:38;36.86;26.24
75190;HTU21D;69198;44.694;37.790;2023-07-29T06:12:39;36.59;26.26
75190;HTU21D;69198;44.694;37.790;2023-07-29T06:13:40;35.80;26.94
75190;HTU21D;69198;44.694;37.790;2023-07-29T06:14:41;34.97;27.87
75190;HTU21D;69198;44.694;37.790;2023-07-29T06:15:44;34.39;28.74
75190;HTU21D;69198;44.694;37.790;2023-07-29T06:16:45;34.06;29.21
75190;HTU21D;69198;44.694;37.790;2023-07-29T06:17:46;33.61;30.01
75190;HTU21D;69198;44.694;37.790;2023-07-29T06:18:47;33.72;30.22
75190;HTU21D;69198;44.694;37.790;2023-07-29T06:19:49;34.12;29.73
75190;HTU21D;69198;44.694;37.790;2023-07-29T06:20:50;34.39;29.26
75190;HTU21D;69198;44.694;37.790;2023-07-29T06:21:55;34.73;28.95
75190;HTU21D;69198;44.694;37.790;2023-07-29T06:22:56;35.01;28.62
75190;HTU21D;69198;44.694;37.790;2023-07-29T06:23:57;35.19;28.42